Terminal Aerodrome Forecast
Issued by NWS Brownsville, TX

Home | Current Version | Previous Version | Text Only | Print | Product List | Glossary On
Versions: 1 2 3 4 5 6 7 8 9 10 11 12 13 14 15 16 17
000
FTUS44 KBRO 292340
TAFHRL
TAF
KHRL 292340Z 3000/3024 16009KT P6SM FEW045
     FM300100 11006KT P6SM SCT250
     FM300800 05005KT 2SM BR SCT008
     FM301400 05010KT P6SM SCT035 BKN040
     FM301800 05011G16KT P6SM SCT020 BKN035=

USA.gov is the U.S. government's official web portal to all federal, state and local government web resources and services.